Time;durP1;ratioP1;P1;durP2;ratioP2;P2;SDS_P1;SDS_P2;PMS_P1;PMS_P2;Temp;Humidity;BMP_temperature;BMP_pressure;BME280_temperature;BME280_humidity;BME280_pressure;Samples;Min_cycle;Max_cycle;Signal;HPM_P1;HPM_P2
2022/01/04 00:00:11;;;;;;;23.13;7.78;;;8.10;99.90;;;;;;4955734;28;20514;-81
2022/01/04 00:02:36;;;;;;;22.13;7.35;;;8.20;99.90;;;;;;4951040;29;20051;-82
2022/01/04 00:05:04;;;;;;;22.50;8.27;;;8.20;99.90;;;;;;4953147;29;20500;-81
2022/01/04 00:07:31;;;;;;;21.85;7.38;;;8.20;99.90;;;;;;4964833;28;20047;-81
2022/01/04 00:09:57;;;;;;;23.17;6.63;;;8.20;99.90;;;;;;4973159;28;20412;-81
2022/01/04 00:15:08;;;;;;;23.17;6.47;;;8.20;99.90;;;;;;4958371;28;20208;-81
2022/01/04 00:17:34;;;;;;;22.15;6.47;;;8.20;99.90;;;;;;4972913;28;20047;-81
2022/01/04 00:20:00;;;;;;;18.30;6.65;;;8.20;99.90;;;;;;4973066;28;20062;-84
2022/01/04 00:22:25;;;;;;;19.73;6.20;;;8.20;99.90;;;;;;4972835;28;20034;-81
2022/01/04 00:24:51;;;;;;;17.88;6.60;;;8.20;99.90;;;;;;4954507;28;20096;-81
2022/01/04 00:27:17;;;;;;;18.00;6.68;;;8.40;99.90;;;;;;4971736;28;20074;-81
2022/01/04 00:29:43;;;;;;;28.73;7.75;;;8.10;99.90;;;;;;4971964;28;20062;-80
2022/01/04 00:32:09;;;;;;;25.20;9.40;;;8.40;99.90;;;;;;4955526;28;20059;-81
2022/01/04 00:34:34;;;;;;;19.40;7.78;;;8.10;99.90;;;;;;4973091;28;20082;-81
2022/01/04 00:37:00;;;;;;;23.95;7.70;;;8.10;99.90;;;;;;4973242;28;20142;-81
2022/01/04 00:39:26;;;;;;;25.60;8.35;;;8.10;99.90;;;;;;4961249;28;20186;-80
2022/01/04 00:41:52;;;;;;;25.55;7.78;;;8.10;99.90;;;;;;4937571;29;20043;-80
2022/01/04 00:44:18;;;;;;;21.23;9.30;;;8.10;99.90;;;;;;4951497;29;20055;-81
2022/01/04 00:46:44;;;;;;;23.95;9.00;;;8.10;99.90;;;;;;4952431;28;20055;-81
2022/01/04 00:49:10;;;;;;;24.98;8.75;;;8.10;99.90;;;;;;4970216;28;20050;-81
2022/01/04 00:51:47;;;;;;;20.65;8.10;;;8.20;99.90;;;;;;4939910;28;20058;-81
2022/01/04 00:54:14;;;;;;;26.60;9.15;;;8.10;99.90;;;;;;4965855;28;20149;-81
2022/01/04 00:56:40;;;;;;;26.98;10.65;;;8.10;99.90;;;;;;4972230;28;20133;-82
2022/01/04 00:59:06;;;;;;;24.38;10.43;;;8.00;99.90;;;;;;4970481;28;20051;-83
2022/01/04 01:01:33;;;;;;;21.63;8.18;;;8.00;99.90;;;;;;4971424;28;20130;-81
2022/01/04 01:03:58;;;;;;;24.38;9.07;;;8.20;99.90;;;;;;4953703;28;20058;-81
2022/01/04 01:06:24;;;;;;;25.35;9.60;;;8.10;99.90;;;;;;4954518;28;20051;-85
2022/01/04 01:08:50;;;;;;;20.73;9.57;;;8.10;99.90;;;;;;4971534;28;20035;-81
2022/01/04 01:11:17;;;;;;;;;;;8.00;99.90;;;;;;4987708;28;20050;-81
2022/01/04 01:13:43;;;;;;;26.38;9.68;;;8.20;99.90;;;;;;4954633;28;19980;-82
2022/01/04 01:16:09;;;;;;;;;;;8.00;99.90;;;;;;4971452;28;20045;-84
2022/01/04 01:18:35;;;;;;;25.52;9.15;;;8.00;99.90;;;;;;4955060;28;19926;-81
2022/01/04 01:21:02;;;;;;;19.63;9.90;;;8.00;99.90;;;;;;4972045;28;20105;-80
2022/01/04 01:23:29;;;;;;;22.70;10.10;;;7.90;99.90;;;;;;4970732;28;20042;-82
2022/01/04 01:25:56;;;;;;;23.50;9.80;;;7.90;99.90;;;;;;4968337;28;20046;-81
2022/01/04 01:28:22;;;;;;;28.58;10.35;;;7.90;99.90;;;;;;4954205;28;20054;-81
2022/01/04 01:30:48;;;;;;;28.67;10.13;;;8.00;99.90;;;;;;4970535;28;20043;-80
2022/01/04 01:33:15;;;;;;;27.90;9.48;;;7.80;99.90;;;;;;4971084;28;20516;-82
2022/01/04 01:35:41;;;;;;;25.67;10.10;;;7.80;99.90;;;;;;4971221;28;20039;-81
2022/01/04 01:38:14;;;;;;;28.83;10.80;;;7.80;99.90;;;;;;4971325;28;20496;-80
2022/01/04 01:40:40;;;;;;;22.73;10.75;;;7.80;99.90;;;;;;4950112;29;20157;-80
2022/01/04 01:43:07;;;;;;;29.55;10.82;;;7.80;99.90;;;;;;4970114;28;20539;-82
2022/01/04 01:45:34;;;;;;;32.20;10.50;;;7.80;99.90;;;;;;4953481;28;20054;-83
2022/01/04 01:48:00;;;;;;;23.38;9.77;;;7.80;99.90;;;;;;4971206;28;20499;-81
2022/01/04 01:50:26;;;;;;;25.60;9.93;;;7.80;99.90;;;;;;4970831;28;20109;-81
2022/01/04 01:52:52;;;;;;;;;;;7.70;99.90;;;;;;4968752;28;20042;-81
2022/01/04 01:55:20;;;;;;;21.73;10.13;;;7.70;99.90;;;;;;4969115;28;20398;-81
2022/01/04 01:57:47;;;;;;;26.73;11.73;;;7.70;99.90;;;;;;4970964;28;20054;-81
2022/01/04 02:00:14;;;;;;;29.92;11.88;;;7.60;99.90;;;;;;4953553;28;20051;-83
2022/01/04 02:02:40;;;;;;;30.63;11.63;;;7.60;99.90;;;;;;4971178;28;20061;-80
2022/01/04 02:05:07;;;;;;;32.03;11.02;;;7.50;99.90;;;;;;4971008;28;20481;-81
2022/01/04 02:07:33;;;;;;;39.47;13.18;;;7.50;99.90;;;;;;4951624;28;20134;-80
2022/01/04 02:10:03;;;;;;;39.50;12.90;;;7.50;99.90;;;;;;4970303;28;20086;-81
2022/01/04 02:12:33;;;;;;;34.30;11.70;;;7.50;99.90;;;;;;4969470;28;20058;-81
2022/01/04 02:14:59;;;;;;;30.45;12.75;;;7.40;99.90;;;;;;4970277;28;20062;-82
2022/01/04 02:17:25;;;;;;;;;;;7.40;99.90;;;;;;4970828;28;20174;-81
2022/01/04 02:19:59;;;;;;;36.15;13.40;;;7.30;99.90;;;;;;4971144;28;19947;-80
2022/01/04 02:22:26;;;;;;;38.03;14.10;;;7.30;99.90;;;;;;4958479;28;20085;-81
2022/01/04 02:24:52;;;;;;;32.97;12.30;;;7.30;99.90;;;;;;4952410;28;20048;-81
2022/01/04 02:27:18;;;;;;;32.08;12.48;;;7.20;99.90;;;;;;4970127;28;20059;-83
2022/01/04 02:29:45;;;;;;;;;;;7.20;99.90;;;;;;4965739;28;20058;-82
2022/01/04 02:32:11;;;;;;;35.15;12.80;;;7.20;99.90;;;;;;4970936;28;20011;-81
2022/01/04 02:34:37;;;;;;;37.83;14.00;;;7.10;99.90;;;;;;4966276;28;20059;-81
2022/01/04 02:37:03;;;;;;;;;;;7.10;99.90;;;;;;4955207;28;20103;-81
2022/01/04 02:39:30;;;;;;;29.85;12.88;;;7.00;99.90;;;;;;4953546;28;19934;-81
2022/01/04 02:41:56;;;;;;;37.22;15.07;;;7.00;99.90;;;;;;4950279;29;20059;-80
2022/01/04 02:44:22;;;;;;;41.38;14.60;;;7.00;99.90;;;;;;4949379;29;20059;-80
2022/01/04 02:46:48;;;;;;;40.42;15.02;;;7.20;99.90;;;;;;4935425;29;20477;-80
2022/01/04 02:49:13;;;;;;;41.55;16.08;;;7.00;99.90;;;;;;4952464;28;20094;-81
2022/01/04 02:51:39;;;;;;;44.67;15.45;;;7.10;99.90;;;;;;4970319;28;20055;-81
2022/01/04 02:54:05;;;;;;;42.97;16.58;;;7.00;99.90;;;;;;4954501;28;20055;-81
2022/01/04 02:56:31;;;;;;;44.03;17.13;;;7.00;99.90;;;;;;4969491;28;20043;-81
2022/01/04 02:59:03;;;;;;;45.47;18.02;;;6.90;99.90;;;;;;4937288;28;20097;-82
2022/01/04 03:01:32;;;;;;;48.53;17.42;;;6.90;99.90;;;;;;4970101;28;20058;-81
2022/01/04 03:03:58;;;;;;;45.38;17.05;;;6.90;99.90;;;;;;4970533;28;20050;-81
2022/01/04 03:06:24;;;;;;;46.28;18.75;;;6.90;99.90;;;;;;4970173;28;20054;-81
2022/01/04 03:08:50;;;;;;;42.65;17.52;;;6.90;99.90;;;;;;4965623;28;20172;-82
2022/01/04 03:11:16;;;;;;;42.72;16.02;;;6.90;99.90;;;;;;4937394;29;20507;-81
2022/01/04 03:13:42;;;;;;;44.50;16.63;;;6.80;99.90;;;;;;4953056;28;20035;-81
2022/01/04 03:16:07;;;;;;;43.75;16.20;;;6.90;99.90;;;;;;4957701;28;20051;-81
2022/01/04 03:18:34;;;;;;;47.88;16.40;;;6.90;99.90;;;;;;4973408;28;20047;-81
2022/01/04 03:21:00;;;;;;;41.67;16.15;;;6.90;99.90;;;;;;4974379;28;20051;-80
2022/01/04 03:23:25;;;;;;;40.83;16.17;;;6.90;99.90;;;;;;4957147;28;20116;-85
2022/01/04 03:25:51;;;;;;;48.90;15.75;;;6.90;99.90;;;;;;4974244;28;20051;-80
2022/01/04 03:28:19;;;;;;;44.67;16.17;;;7.00;99.90;;;;;;4953412;28;20043;-81
2022/01/04 03:30:46;;;;;;;45.53;16.00;;;7.00;99.90;;;;;;4966187;28;20130;-81
2022/01/04 03:33:12;;;;;;;47.65;17.08;;;7.00;99.90;;;;;;4974088;28;20054;-81
2022/01/04 03:35:37;;;;;;;52.70;16.67;;;7.00;99.90;;;;;;4973339;28;20412;-81
2022/01/04 03:38:03;;;;;;;44.28;16.75;;;7.30;99.90;;;;;;4954446;29;20145;-81
2022/01/04 03:40:29;;;;;;;47.92;18.13;;;7.20;99.90;;;;;;4956988;28;20058;-80
2022/01/04 03:42:54;;;;;;;47.35;17.33;;;7.30;99.90;;;;;;4973075;28;20046;-81
2022/01/04 03:45:21;;;;;;;41.72;16.63;;;7.30;99.90;;;;;;4962425;28;20054;-81
2022/01/04 03:47:47;;;;;;;46.75;17.20;;;7.30;99.90;;;;;;4925279;28;20141;-81
2022/01/04 03:50:13;;;;;;;43.15;17.67;;;7.30;99.90;;;;;;4941731;28;20047;-81
2022/01/04 03:52:39;;;;;;;42.28;16.17;;;7.30;99.90;;;;;;4929544;28;20055;-81
2022/01/04 03:55:06;;;;;;;46.50;18.25;;;7.30;99.90;;;;;;4973442;28;20057;-80
2022/01/04 03:57:33;;;;;;;48.63;18.65;;;7.40;99.90;;;;;;4955743;28;20097;-81
2022/01/04 03:59:59;;;;;;;40.45;18.77;;;7.40;99.90;;;;;;4956115;28;20066;-82
2022/01/04 04:02:25;;;;;;;45.22;18.75;;;7.40;99.90;;;;;;4957089;28;20043;-83
2022/01/04 04:04:50;;;;;;;46.72;18.50;;;7.40;99.90;;;;;;4955111;28;20101;-81
2022/01/04 04:07:16;;;;;;;46.92;17.55;;;7.40;99.90;;;;;;4941184;28;20047;-82
2022/01/04 04:09:42;;;;;;;46.05;20.08;;;7.40;99.90;;;;;;4924618;28;20105;-81
2022/01/04 04:12:08;;;;;;;44.20;18.48;;;7.40;99.90;;;;;;4941014;28;20054;-81
2022/01/04 04:14:34;;;;;;;47.33;17.42;;;7.40;99.90;;;;;;4954549;28;20074;-81
2022/01/04 04:16:59;;;;;;;48.08;18.52;;;7.40;99.90;;;;;;4957729;28;20526;-81
2022/01/04 04:19:25;;;;;;;46.33;18.95;;;7.40;99.90;;;;;;4957177;28;20503;-80
2022/01/04 04:21:51;;;;;;;47.78;18.02;;;7.60;99.90;;;;;;4941931;28;20058;-81
2022/01/04 04:24:16;;;;;;;45.88;17.73;;;7.40;99.90;;;;;;4961389;28;20054;-80
2022/01/04 04:26:43;;;;;;;45.33;18.60;;;7.40;99.90;;;;;;4939825;28;20400;-81
2022/01/04 04:29:09;;;;;;;43.08;16.13;;;7.40;99.90;;;;;;4939824;28;20062;-81
2022/01/04 04:31:35;;;;;;;43.05;18.00;;;7.40;99.90;;;;;;4955939;28;20097;-81
2022/01/04 04:34:00;;;;;;;46.72;18.27;;;7.40;99.90;;;;;;4948272;28;20047;-80
2022/01/04 04:36:27;;;;;;;42.05;18.23;;;7.50;99.90;;;;;;4940814;28;20055;-81
2022/01/04 04:38:53;;;;;;;;;;;7.40;99.90;;;;;;4955662;28;20129;-81
2022/01/04 04:41:18;;;;;;;41.05;17.17;;;7.40;99.90;;;;;;4956586;28;20017;-81
2022/01/04 04:43:45;;;;;;;46.90;18.10;;;7.40;99.90;;;;;;4954618;28;20462;-81
2022/01/04 04:46:11;;;;;;;46.60;16.65;;;7.40;99.90;;;;;;4969167;28;20393;-81
2022/01/04 04:48:37;;;;;;;49.00;17.88;;;7.50;99.90;;;;;;4972937;28;20109;-81
2022/01/04 04:51:03;;;;;;;43.92;17.40;;;7.50;99.90;;;;;;4967496;28;20047;-81
2022/01/04 04:53:28;;;;;;;47.08;18.17;;;7.50;99.90;;;;;;4965983;28;20535;-84
2022/01/04 04:55:54;;;;;;;43.60;17.63;;;7.50;99.90;;;;;;4972263;28;20049;-81
2022/01/04 04:58:20;;;;;;;46.65;17.42;;;7.50;99.90;;;;;;4971543;28;20046;-81
2022/01/04 05:00:46;;;;;;;39.65;15.27;;;7.50;99.90;;;;;;4986443;28;20416;-81
2022/01/04 05:03:11;;;;;;;44.17;15.93;;;7.50;99.90;;;;;;4953288;29;20047;-83
2022/01/04 05:05:37;;;;;;;39.90;15.25;;;7.50;99.90;;;;;;4936389;29;20567;-81
2022/01/04 05:08:03;;;;;;;46.72;14.07;;;7.50;99.90;;;;;;4955801;28;20097;-82
2022/01/04 05:10:29;;;;;;;44.92;15.95;;;7.50;99.90;;;;;;4960171;28;20047;-84
2022/01/04 05:12:55;;;;;;;39.00;17.35;;;7.50;99.90;;;;;;4971583;28;20051;-81
2022/01/04 05:15:20;;;;;;;44.75;18.55;;;7.60;99.90;;;;;;4934857;29;20404;-81
2022/01/04 05:17:46;;;;;;;39.15;15.40;;;7.50;99.90;;;;;;4938799;28;20105;-81
2022/01/04 05:20:12;;;;;;;37.67;16.35;;;7.50;99.90;;;;;;4958678;28;20134;-81
2022/01/04 05:22:37;;;;;;;44.95;15.60;;;7.60;99.90;;;;;;4955351;28;20055;-81
2022/01/04 05:25:04;;;;;;;31.17;12.95;;;7.50;99.90;;;;;;4971556;28;20042;-81
2022/01/04 05:27:29;;;;;;;28.48;11.52;;;7.50;99.90;;;;;;4970960;28;20055;-81
2022/01/04 05:29:56;;;;;;;29.17;13.10;;;7.50;99.90;;;;;;4970277;28;20062;-81
2022/01/04 05:32:21;;;;;;;29.52;13.05;;;7.60;99.90;;;;;;4971454;28;20416;-81
2022/01/04 05:34:47;;;;;;;30.52;12.52;;;7.70;99.90;;;;;;4954733;28;20055;-81
2022/01/04 05:37:13;;;;;;;26.92;11.02;;;7.50;99.90;;;;;;4953564;28;20447;-81
2022/01/04 05:39:38;;;;;;;32.00;12.65;;;7.60;99.90;;;;;;4933419;29;20439;-82
2022/01/04 05:42:05;;;;;;;33.08;13.52;;;7.60;99.90;;;;;;4968426;28;20094;-80
2022/01/04 05:44:30;;;;;;;36.55;15.15;;;7.60;99.90;;;;;;4968287;28;20067;-81
2022/01/04 05:46:56;;;;;;;48.35;16.75;;;7.50;99.90;;;;;;4954143;28;20077;-81
2022/01/04 05:49:22;;;;;;;43.00;17.45;;;7.60;99.90;;;;;;4939408;28;20043;-81
2022/01/04 05:51:47;;;;;;;43.60;17.20;;;7.50;99.90;;;;;;4954599;28;20047;-82
2022/01/04 05:54:13;;;;;;;40.65;17.48;;;7.60;99.90;;;;;;4941309;29;20051;-81
2022/01/04 05:56:39;;;;;;;40.17;17.08;;;7.60;99.90;;;;;;4935750;29;20134;-81
2022/01/04 05:59:05;;;;;;;43.97;16.90;;;7.60;99.90;;;;;;4934664;29;20054;-81
2022/01/04 06:01:30;;;;;;;37.17;14.93;;;7.60;99.90;;;;;;4964416;28;20055;-82
2022/01/04 06:03:56;;;;;;;44.22;17.63;;;7.60;99.90;;;;;;4954274;28;20046;-81
2022/01/04 06:06:22;;;;;;;38.25;15.57;;;7.80;99.90;;;;;;4971132;28;20062;-81
2022/01/04 06:08:48;;;;;;;42.92;16.13;;;7.60;99.90;;;;;;4950768;29;20043;-82
2022/01/04 06:11:31;;;;;;;32.90;14.40;;;7.60;99.90;;;;;;4920416;29;20178;-80
2022/01/04 06:16:41;;;;;;;37.47;15.27;;;7.60;99.90;;;;;;4946269;28;20050;-81
2022/01/04 06:19:07;;;;;;;43.13;16.30;;;7.60;99.90;;;;;;4954765;28;20039;-81
2022/01/04 06:21:32;;;;;;;42.33;18.20;;;7.60;99.90;;;;;;4954876;28;20042;-81
2022/01/04 06:23:58;;;;;;;37.28;15.63;;;7.50;99.90;;;;;;4953951;28;20873;-81
2022/01/04 06:26:24;;;;;;;39.97;17.05;;;7.60;99.90;;;;;;4955101;28;20050;-81
2022/01/04 06:28:50;;;;;;;42.40;15.63;;;7.60;99.90;;;;;;4936599;28;20150;-80
2022/01/04 06:31:16;;;;;;;45.83;16.70;;;7.50;99.90;;;;;;4938731;28;20137;-81
2022/01/04 06:33:43;;;;;;;36.50;15.20;;;7.50;99.90;;;;;;4953846;28;20051;-81
2022/01/04 06:36:08;;;;;;;39.67;16.27;;;7.50;99.90;;;;;;4970982;28;20050;-81
2022/01/04 06:38:34;;;;;;;37.85;15.23;;;7.50;99.90;;;;;;4954179;28;20047;-81
2022/01/04 06:41:00;;;;;;;37.25;16.42;;;7.50;99.90;;;;;;4938316;28;20413;-83
2022/01/04 06:43:26;;;;;;;42.53;17.25;;;7.50;99.90;;;;;;4954136;28;20476;-83
2022/01/04 06:45:52;;;;;;;33.47;15.30;;;7.60;99.90;;;;;;4962546;28;20047;-80
2022/01/04 06:48:17;;;;;;;42.47;15.65;;;7.50;99.90;;;;;;4974880;28;20448;-80
2022/01/04 06:50:43;;;;;;;48.22;16.88;;;7.50;99.90;;;;;;4957555;28;20043;-80
2022/01/04 06:53:09;;;;;;;41.65;15.63;;;7.50;99.90;;;;;;4958936;28;20054;-80
2022/01/04 06:55:34;;;;;;;41.65;16.40;;;7.60;99.90;;;;;;4965586;28;20050;-81
2022/01/04 06:58:00;;;;;;;40.40;15.30;;;7.60;99.90;;;;;;4955521;28;20186;-80
2022/01/04 07:00:26;;;;;;;35.67;16.65;;;7.50;99.90;;;;;;4973232;28;20060;-81
2022/01/04 07:02:51;;;;;;;48.60;18.75;;;7.60;99.90;;;;;;4990437;28;20043;-81
2022/01/04 07:05:17;;;;;;;46.00;17.27;;;7.60;99.90;;;;;;4990255;28;20432;-81
2022/01/04 07:07:43;;;;;;;46.17;17.77;;;7.60;99.90;;;;;;4957948;28;20551;-85
2022/01/04 07:10:09;;;;;;;43.75;17.95;;;7.60;99.90;;;;;;4957172;28;20093;-81
2022/01/04 07:12:35;;;;;;;40.65;16.15;;;7.60;99.90;;;;;;4972676;28;20484;-81
2022/01/04 07:15:01;;;;;;;39.35;16.35;;;7.60;99.90;;;;;;4972251;28;20047;-81
2022/01/04 07:17:27;;;;;;;36.53;14.60;;;7.60;99.90;;;;;;4973193;28;20054;-81
2022/01/04 07:19:53;;;;;;;45.58;17.88;;;7.80;99.90;;;;;;4955882;28;20114;-81
2022/01/04 07:22:18;;;;;;;39.28;16.80;;;7.60;99.90;;;;;;4957840;28;20142;-81
2022/01/04 07:24:44;;;;;;;42.33;18.23;;;7.60;99.90;;;;;;4940668;28;20047;-83
2022/01/04 07:27:10;;;;;;;42.92;18.55;;;7.60;99.90;;;;;;4989574;28;20039;-81
2022/01/04 07:29:36;;;;;;;44.80;18.42;;;7.20;99.90;;;;;;4923436;28;20050;-81
2022/01/04 07:32:01;;;;;;;41.55;17.75;;;7.50;99.90;;;;;;4973341;28;20055;-80
2022/01/04 07:34:27;;;;;;;42.15;16.42;;;7.60;99.90;;;;;;4973152;28;20121;-80
2022/01/04 07:36:53;;;;;;;36.22;16.35;;;7.70;99.90;;;;;;4973691;28;20124;-80
2022/01/04 07:39:18;;;;;;;38.97;16.85;;;7.60;99.90;;;;;;4973670;28;20062;-80
2022/01/04 07:41:44;;;;;;;42.90;17.10;;;7.60;99.90;;;;;;4957817;28;20046;-83
2022/01/04 07:44:10;;;;;;;36.53;16.75;;;7.60;99.90;;;;;;4972290;28;20046;-81
2022/01/04 07:46:35;;;;;;;41.13;16.35;;;7.60;99.90;;;;;;4972661;28;20488;-81
2022/01/04 07:49:01;;;;;;;39.28;17.55;;;7.60;99.90;;;;;;4988100;28;20117;-81
2022/01/04 07:51:28;;;;;;;38.05;17.00;;;7.60;99.90;;;;;;4958063;28;20515;-80
2022/01/04 07:53:54;;;;;;;41.92;17.63;;;7.60;99.90;;;;;;4940867;28;20082;-82
2022/01/04 07:56:20;;;;;;;41.95;18.10;;;7.60;99.90;;;;;;4972715;28;20121;-82
2022/01/04 07:58:45;;;;;;;45.38;18.52;;;7.60;99.90;;;;;;4971135;28;20054;-81
2022/01/04 08:01:13;;;;;;;41.83;18.48;;;7.60;99.90;;;;;;4939817;28;20129;-81
2022/01/04 08:03:39;;;;;;;43.63;18.55;;;7.60;99.90;;;;;;4972554;28;20093;-81
2022/01/04 08:06:05;;;;;;;44.22;18.83;;;7.60;99.90;;;;;;4962017;28;20053;-82
2022/01/04 08:08:30;;;;;;;44.05;19.17;;;7.60;99.90;;;;;;4940588;28;20047;-81
2022/01/04 08:10:56;;;;;;;47.03;20.10;;;7.60;99.90;;;;;;4948758;28;20484;-81
2022/01/04 08:13:22;;;;;;;49.35;19.75;;;7.60;99.90;;;;;;4945045;28;20054;-80
2022/01/04 08:15:48;;;;;;;46.33;18.65;;;7.60;99.90;;;;;;4960157;28;20515;-85
2022/01/04 08:18:14;;;;;;;50.58;20.40;;;7.60;99.90;;;;;;4949434;28;20065;-82
2022/01/04 08:20:39;;;;;;;50.08;21.65;;;7.60;99.90;;;;;;4964110;28;20054;-79
2022/01/04 08:23:05;;;;;;;49.33;19.58;;;7.60;99.90;;;;;;4959001;28;20051;-81
2022/01/04 08:25:31;;;;;;;49.47;19.20;;;7.50;99.90;;;;;;4961173;28;20054;-79
2022/01/04 08:27:57;;;;;;;42.72;17.40;;;7.60;99.90;;;;;;4955831;28;20055;-79
2022/01/04 08:30:22;;;;;;;45.22;17.45;;;7.50;99.90;;;;;;4954965;28;20086;-80
2022/01/04 08:32:50;;;;;;;42.45;17.42;;;7.50;99.90;;;;;;4956454;28;20078;-77
2022/01/04 08:35:16;;;;;;;39.70;15.98;;;7.60;99.90;;;;;;4973376;28;20137;-80
2022/01/04 08:37:42;;;;;;;39.08;17.02;;;7.60;99.90;;;;;;4972580;28;20090;-79
2022/01/04 08:40:08;;;;;;;41.30;18.15;;;7.50;99.90;;;;;;4968318;28;20078;-80
2022/01/04 08:42:36;;;;;;;36.13;16.10;;;7.60;99.90;;;;;;4970173;28;20051;-88
2022/01/04 08:45:03;;;;;;;40.45;16.65;;;7.60;99.90;;;;;;4952395;28;20106;-77
2022/01/04 08:47:29;;;;;;;37.38;16.15;;;7.60;99.90;;;;;;4969557;28;20055;-78
2022/01/04 08:49:55;;;;;;;32.40;15.02;;;7.60;99.90;;;;;;4971022;28;20053;-79
2022/01/04 08:52:21;;;;;;;37.88;16.85;;;7.60;99.90;;;;;;4970567;28;20039;-79
2022/01/04 08:54:47;;;;;;;39.03;15.70;;;7.60;99.90;;;;;;4972512;28;20050;-79
2022/01/04 08:57:13;;;;;;;34.25;15.88;;;7.70;99.90;;;;;;4970985;28;20573;-81
2022/01/04 08:59:38;;;;;;;34.45;15.30;;;7.70;99.90;;;;;;4971263;28;20082;-78
2022/01/04 09:02:04;;;;;;;38.70;16.95;;;7.60;99.90;;;;;;4951912;29;20123;-79
2022/01/04 09:04:30;;;;;;;39.40;14.70;;;7.70;99.90;;;;;;4971998;28;20043;-78
2022/01/04 09:06:56;;;;;;;35.38;16.05;;;7.70;99.90;;;;;;4971550;28;20532;-81
2022/01/04 09:09:21;;;;;;;34.72;14.85;;;7.70;99.90;;;;;;4970483;28;20066;-80
2022/01/04 09:11:47;;;;;;;35.97;16.27;;;7.70;99.90;;;;;;4955699;28;20058;-78
2022/01/04 09:14:30;;;;;;;35.65;16.10;;;7.70;99.90;;;;;;4951140;28;20051;-78
2022/01/04 09:19:41;;;;;;;41.60;15.90;;;7.80;99.90;;;;;;4971457;28;20397;-78
2022/01/04 09:22:06;;;;;;;40.47;17.70;;;7.80;99.90;;;;;;4971245;28;20485;-78
2022/01/04 09:24:33;;;;;;;37.13;16.23;;;7.80;99.90;;;;;;4953505;28;20108;-78
2022/01/04 09:26:59;;;;;;;37.55;16.63;;;7.80;99.90;;;;;;4966085;28;20047;-81
2022/01/04 09:29:32;;;;;;;40.70;17.67;;;7.80;99.90;;;;;;5131312;27;1259474;-78
2022/01/04 09:32:00;;;;;;;38.22;16.17;;;7.80;99.90;;;;;;5141615;27;20053;-81
2022/01/04 09:34:26;;;;;;;42.60;16.15;;;7.80;99.90;;;;;;5144311;27;20050;-77
2022/01/04 09:36:52;;;;;;;40.55;17.75;;;7.80;99.90;;;;;;5145891;27;20046;-79
2022/01/04 09:39:23;;;;;;;39.38;15.82;;;7.80;99.90;;;;;;5126924;27;20196;-79
2022/01/04 09:41:51;;;;;;;45.22;19.05;;;7.80;99.90;;;;;;5138398;27;20137;-79
2022/01/04 09:44:17;;;;;;;36.17;17.40;;;7.80;99.90;;;;;;5138640;27;20057;-78
2022/01/04 09:46:43;;;;;;;34.85;15.50;;;7.90;99.90;;;;;;5150972;27;20066;-79
2022/01/04 09:49:10;;;;;;;;;;;7.80;99.90;;;;;;5149852;27;20050;-81
2022/01/04 09:51:38;;;;;;;41.80;16.70;;;7.80;99.90;;;;;;5108333;27;20270;-82
2022/01/04 09:54:04;;;;;;;50.90;19.05;;;7.70;99.90;;;;;;5130065;27;20129;-81
2022/01/04 09:56:30;;;;;;;63.00;20.02;;;7.70;99.90;;;;;;5131265;27;20154;-81
2022/01/04 09:58:56;;;;;;;29.15;12.98;;;7.60;99.90;;;;;;5111727;27;20087;-79
2022/01/04 10:01:25;;;;;;;15.20;6.65;;;7.40;99.90;;;;;;5151791;27;20046;-79
2022/01/04 10:03:51;;;;;;;17.58;6.97;;;7.40;99.90;;;;;;5169895;27;20115;-79
2022/01/04 10:06:19;;;;;;;11.32;4.95;;;7.20;99.90;;;;;;5150208;27;20058;-83
2022/01/04 10:09:00;;;;;;;8.25;3.38;;;7.10;99.90;;;;;;5129877;27;20089;-83
2022/01/04 10:11:43;;;;;;;9.13;3.30;;;7.00;99.90;;;;;;5148835;27;20046;-83
2022/01/04 10:14:31;;;;;;;10.40;3.15;;;6.80;99.90;;;;;;5128443;27;20050;-83
2022/01/04 10:16:58;;;;;;;13.60;4.40;;;6.80;99.90;;;;;;5150371;27;20045;-84
2022/01/04 10:19:30;;;;;;;18.67;6.93;;;6.80;99.90;;;;;;5133263;27;20094;-84
2022/01/04 10:22:19;;;;;;;17.40;7.00;;;6.70;99.90;;;;;;5133347;27;20502;-84
2022/01/04 10:24:48;;;;;;;19.15;7.72;;;6.80;99.90;;;;;;5145641;27;20054;-85
2022/01/04 10:27:21;;;;;;;15.63;5.90;;;7.00;99.90;;;;;;5149307;27;20054;-85
2022/01/04 10:29:48;;;;;;;17.20;6.53;;;6.90;99.90;;;;;;5118960;27;20053;-84
2022/01/04 10:32:14;;;;;;;25.08;8.20;;;7.60;99.90;;;;;;5130975;27;20054;-84
2022/01/04 10:34:47;;;;;;;;;;;7.10;99.90;;;;;;5148830;27;20046;-84
2022/01/04 10:37:32;;;;;;;17.95;6.35;;;7.10;99.90;;;;;;5117489;27;19926;-85
2022/01/04 10:40:04;;;;;;;13.63;5.47;;;7.10;99.90;;;;;;5139828;27;20058;-84
2022/01/04 10:42:30;;;;;;;15.73;6.05;;;7.10;99.90;;;;;;5116736;27;20051;-86
2022/01/04 10:44:55;;;;;;;15.75;5.28;;;7.10;99.90;;;;;;5133898;27;20045;-84
2022/01/04 10:47:31;;;;;;;12.82;4.18;;;7.10;99.90;;;;;;5098575;27;20051;-84
2022/01/04 10:49:56;;;;;;;8.98;3.80;;;7.10;99.90;;;;;;5133815;27;20045;-84
2022/01/04 10:52:31;;;;;;;11.07;3.50;;;7.10;99.90;;;;;;5126546;27;20042;-84
2022/01/04 10:55:15;;;;;;;11.48;3.90;;;7.10;99.90;;;;;;5134171;27;20051;-84
2022/01/04 10:57:41;;;;;;;11.85;3.72;;;7.10;99.90;;;;;;5129802;27;20114;-85
2022/01/04 11:00:20;;;;;;;11.77;4.07;;;7.10;99.90;;;;;;5088461;27;20134;-85
2022/01/04 11:02:46;;;;;;;11.70;3.97;;;7.10;99.90;;;;;;5133044;27;20048;-84
2022/01/04 11:05:17;;;;;;;12.90;4.03;;;7.10;99.90;;;;;;5116361;27;20111;-84
2022/01/04 11:08:00;;;;;;;10.00;3.50;;;7.00;99.90;;;;;;5109659;27;20034;-84
2022/01/04 11:10:28;;;;;;;4.65;2.03;;;7.00;99.90;;;;;;5133494;27;20191;-84
2022/01/04 11:12:59;;;;;;;5.72;2.08;;;6.90;99.90;;;;;;5133289;27;20065;-83
2022/01/04 11:15:26;;;;;;;10.50;2.72;;;6.90;99.90;;;;;;5131806;27;20046;-84
2022/01/04 11:17:53;;;;;;;9.45;2.72;;;6.80;99.90;;;;;;5133975;27;20099;-85
2022/01/04 11:20:20;;;;;;;7.97;2.40;;;6.80;99.90;;;;;;5116527;27;20100;-84
2022/01/04 11:22:48;;;;;;;6.60;2.20;;;6.70;99.90;;;;;;5136401;27;20091;-83
2022/01/04 11:25:17;;;;;;;4.70;1.80;;;6.70;99.90;;;;;;5133150;27;20047;-83
2022/01/04 11:27:43;;;;;;;5.75;1.80;;;6.70;99.90;;;;;;5101975;27;20506;-84
2022/01/04 11:30:16;;;;;;;4.63;1.60;;;6.60;99.90;;;;;;5131913;27;20126;-84
2022/01/04 11:32:45;;;;;;;4.88;1.98;;;6.60;99.90;;;;;;5114913;27;20119;-84
2022/01/04 11:35:13;;;;;;;7.15;1.75;;;6.60;99.90;;;;;;5103483;27;20451;-82
2022/01/04 11:37:42;;;;;;;6.00;1.38;;;6.60;99.90;;;;;;5134046;27;20042;-82
2022/01/04 11:40:26;;;;;;;5.43;1.58;;;6.60;99.90;;;;;;5130489;27;20049;-83
2022/01/04 11:42:53;;;;;;;8.25;2.13;;;6.60;99.90;;;;;;5131063;27;20397;-82
2022/01/04 11:45:55;;;;;;;6.45;1.50;;;6.60;99.90;;;;;;5129975;27;20086;-83
2022/01/04 11:48:35;;;;;;;8.68;1.52;;;6.60;99.90;;;;;;5013623;28;20045;-83
2022/01/04 11:51:27;;;;;;;5.75;1.60;;;6.60;99.90;;;;;;5102879;27;20055;-83
2022/01/04 11:54:17;;;;;;;6.63;1.63;;;6.60;99.90;;;;;;5076352;27;20055;-84
2022/01/04 11:56:49;;;;;;;4.60;1.65;;;6.60;99.90;;;;;;5114866;27;20051;-84
2022/01/04 11:59:19;;;;;;;6.30;1.80;;;6.50;99.90;;;;;;5133191;27;20560;-84
2022/01/04 12:01:45;;;;;;;5.45;1.60;;;6.80;99.90;;;;;;5134332;27;20142;-83
2022/01/04 12:04:11;;;;;;;9.25;1.85;;;6.60;99.90;;;;;;5117464;27;20043;-85
2022/01/04 12:06:42;;;;;;;10.23;1.80;;;6.50;99.90;;;;;;5141390;27;20038;-83
2022/01/04 12:09:29;;;;;;;6.90;1.50;;;6.50;99.90;;;;;;5113679;27;20547;-84
2022/01/04 12:11:55;;;;;;;5.85;1.52;;;6.50;99.90;;;;;;5097567;27;20074;-84
2022/01/04 12:14:24;;;;;;;3.78;1.60;;;6.40;99.90;;;;;;5095480;27;20051;-83
2022/01/04 12:17:07;;;;;;;2.83;1.23;;;6.30;99.90;;;;;;5112550;27;20058;-83
2022/01/04 12:19:50;;;;;;;6.50;1.50;;;6.30;99.90;;;;;;5134759;27;20814;-83
2022/01/04 12:22:32;;;;;;;1.30;0.90;;;6.20;99.90;;;;;;5134187;27;20055;-82
2022/01/04 12:25:08;;;;;;;6.32;1.67;;;6.20;99.90;;;;;;5133821;27;20506;-83
2022/01/04 12:27:34;;;;;;;2.40;0.88;;;6.00;99.90;;;;;;5133409;27;20050;-82
2022/01/04 12:30:23;;;;;;;5.05;1.27;;;6.00;99.90;;;;;;5133109;27;20376;-83
2022/01/04 12:32:49;;;;;;;4.55;0.88;;;5.90;99.90;;;;;;5115920;27;20043;-83
2022/01/04 12:35:16;;;;;;;2.17;0.90;;;5.90;99.90;;;;;;5108264;27;20042;-82
2022/01/04 12:37:42;;;;;;;3.60;0.90;;;5.90;99.90;;;;;;5111426;27;20047;-83
2022/01/04 12:40:08;;;;;;;1.75;1.00;;;6.00;99.90;;;;;;5115148;27;20095;-83
2022/01/04 12:42:34;;;;;;;;;;;5.80;99.90;;;;;;5117100;27;20523;-83
2022/01/04 12:45:00;;;;;;;2.95;1.10;;;5.80;99.90;;;;;;5133789;27;19919;-82
2022/01/04 12:47:27;;;;;;;2.20;0.80;;;5.80;99.90;;;;;;5134225;27;20433;-83
2022/01/04 12:49:52;;;;;;;3.00;1.05;;;5.70;99.90;;;;;;5135283;27;20083;-82
2022/01/04 12:52:21;;;;;;;2.60;1.00;;;5.70;99.90;;;;;;5112946;27;20046;-83
2022/01/04 12:54:47;;;;;;;5.38;1.20;;;5.70;99.90;;;;;;5138113;27;20053;-83